sensor_id;sensor_type;location;lat;lon;timestamp;temperature;humidity
77865;DHT22;67061;48.524;9.040;2023-06-14T00:02:01;12.50;64.40
77865;DHT22;67061;48.524;9.040;2023-06-14T00:04:28;12.40;64.80
77865;DHT22;67061;48.524;9.040;2023-06-14T00:06:56;12.40;65.10
77865;DHT22;67061;48.524;9.040;2023-06-14T00:09:23;12.40;64.50
77865;DHT22;67061;48.524;9.040;2023-06-14T00:11:50;12.40;63.90
77865;DHT22;67061;48.524;9.040;2023-06-14T00:14:17;12.30;65.80
77865;DHT22;67061;48.524;9.040;2023-06-14T00:16:44;12.20;65.70
77865;DHT22;67061;48.524;9.040;2023-06-14T00:19:11;12.10;66.70
77865;DHT22;67061;48.524;9.040;2023-06-14T00:21:38;12.00;65.70
77865;DHT22;67061;48.524;9.040;2023-06-14T00:24:07;12.00;66.70
77865;DHT22;67061;48.524;9.040;2023-06-14T00:26:34;11.90;67.20
77865;DHT22;67061;48.524;9.040;2023-06-14T00:29:01;12.00;65.50
77865;DHT22;67061;48.524;9.040;2023-06-14T00:31:29;11.90;66.60
77865;DHT22;67061;48.524;9.040;2023-06-14T00:33:55;11.90;65.50
77865;DHT22;67061;48.524;9.040;2023-06-14T00:36:22;11.90;66.50
77865;DHT22;67061;48.524;9.040;2023-06-14T00:38:49;11.90;66.80
77865;DHT22;67061;48.524;9.040;2023-06-14T00:41:17;11.80;66.90
77865;DHT22;67061;48.524;9.040;2023-06-14T00:43:44;11.70;67.40
77865;DHT22;67061;48.524;9.040;2023-06-14T00:46:11;11.70;67.90
77865;DHT22;67061;48.524;9.040;2023-06-14T00:48:39;11.70;68.90
77865;DHT22;67061;48.524;9.040;2023-06-14T00:51:06;11.70;68.80
77865;DHT22;67061;48.524;9.040;2023-06-14T00:53:33;11.70;68.70
77865;DHT22;67061;48.524;9.040;2023-06-14T00:56:01;11.70;67.90
77865;DHT22;67061;48.524;9.040;2023-06-14T00:58:30;11.70;68.50
77865;DHT22;67061;48.524;9.040;2023-06-14T01:00:58;11.60;68.70
77865;DHT22;67061;48.524;9.040;2023-06-14T01:03:25;11.60;68.80
77865;DHT22;67061;48.524;9.040;2023-06-14T01:05:59;11.50;68.70
77865;DHT22;67061;48.524;9.040;2023-06-14T01:08:36;11.50;68.90
77865;DHT22;67061;48.524;9.040;2023-06-14T01:11:10;11.50;70.10
77865;DHT22;67061;48.524;9.040;2023-06-14T01:13:42;11.50;69.60
77865;DHT22;67061;48.524;9.040;2023-06-14T01:16:10;11.30;69.50
77865;DHT22;67061;48.524;9.040;2023-06-14T01:18:38;11.20;69.30
77865;DHT22;67061;48.524;9.040;2023-06-14T01:21:19;11.10;69.00
77865;DHT22;67061;48.524;9.040;2023-06-14T01:23:47;11.00;71.40
77865;DHT22;67061;48.524;9.040;2023-06-14T01:26:18;10.90;70.50
77865;DHT22;67061;48.524;9.040;2023-06-14T01:28:45;10.80;71.20
77865;DHT22;67061;48.524;9.040;2023-06-14T01:31:17;10.70;72.30
77865;DHT22;67061;48.524;9.040;2023-06-14T01:33:48;10.70;72.10
77865;DHT22;67061;48.524;9.040;2023-06-14T01:36:16;10.70;72.40
77865;DHT22;67061;48.524;9.040;2023-06-14T01:38:44;10.60;72.20
77865;DHT22;67061;48.524;9.040;2023-06-14T01:41:13;10.60;72.50
77865;DHT22;67061;48.524;9.040;2023-06-14T01:43:41;10.50;73.30
77865;DHT22;67061;48.524;9.040;2023-06-14T01:46:10;10.40;73.20
77865;DHT22;67061;48.524;9.040;2023-06-14T01:48:37;10.40;73.60
77865;DHT22;67061;48.524;9.040;2023-06-14T01:51:04;10.30;73.60
77865;DHT22;67061;48.524;9.040;2023-06-14T01:53:31;10.20;74.00
77865;DHT22;67061;48.524;9.040;2023-06-14T01:55:58;10.10;74.00
77865;DHT22;67061;48.524;9.040;2023-06-14T01:58:27;10.10;74.00
77865;DHT22;67061;48.524;9.040;2023-06-14T02:00:54;10.10;74.20
77865;DHT22;67061;48.524;9.040;2023-06-14T02:03:22;10.10;74.30
77865;DHT22;67061;48.524;9.040;2023-06-14T02:05:50;10.00;74.80
77865;DHT22;67061;48.524;9.040;2023-06-14T02:08:17;10.10;74.70
77865;DHT22;67061;48.524;9.040;2023-06-14T02:10:44;10.00;74.60
77865;DHT22;67061;48.524;9.040;2023-06-14T02:13:11;10.00;75.10
77865;DHT22;67061;48.524;9.040;2023-06-14T02:15:40;9.80;75.30
77865;DHT22;67061;48.524;9.040;2023-06-14T02:18:10;9.80;76.30
77865;DHT22;67061;48.524;9.040;2023-06-14T02:20:37;9.90;76.00
77865;DHT22;67061;48.524;9.040;2023-06-14T02:23:04;9.90;76.00
77865;DHT22;67061;48.524;9.040;2023-06-14T02:25:33;9.80;75.80
77865;DHT22;67061;48.524;9.040;2023-06-14T02:28:00;9.80;76.40
77865;DHT22;67061;48.524;9.040;2023-06-14T02:30:27;9.70;76.30
77865;DHT22;67061;48.524;9.040;2023-06-14T02:32:56;9.60;76.40
77865;DHT22;67061;48.524;9.040;2023-06-14T02:35:23;9.50;77.00
77865;DHT22;67061;48.524;9.040;2023-06-14T02:37:52;9.50;77.70
77865;DHT22;67061;48.524;9.040;2023-06-14T02:40:19;9.50;77.40
77865;DHT22;67061;48.524;9.040;2023-06-14T02:42:46;9.50;77.10
77865;DHT22;67061;48.524;9.040;2023-06-14T02:45:13;9.40;77.00
77865;DHT22;67061;48.524;9.040;2023-06-14T02:47:40;9.40;77.50
77865;DHT22;67061;48.524;9.040;2023-06-14T02:50:10;9.40;78.40
77865;DHT22;67061;48.524;9.040;2023-06-14T02:52:37;9.40;77.90
77865;DHT22;67061;48.524;9.040;2023-06-14T02:55:04;9.40;77.40
77865;DHT22;67061;48.524;9.040;2023-06-14T02:57:31;9.40;77.70
77865;DHT22;67061;48.524;9.040;2023-06-14T02:59:58;9.30;78.00
77865;DHT22;67061;48.524;9.040;2023-06-14T03:02:26;9.20;78.10
77865;DHT22;67061;48.524;9.040;2023-06-14T03:04:52;9.20;78.60
77865;DHT22;67061;48.524;9.040;2023-06-14T03:07:21;9.20;78.20
77865;DHT22;67061;48.524;9.040;2023-06-14T03:09:49;9.10;78.70
77865;DHT22;67061;48.524;9.040;2023-06-14T03:12:15;9.00;79.10
77865;DHT22;67061;48.524;9.040;2023-06-14T03:14:42;9.10;79.30
77865;DHT22;67061;48.524;9.040;2023-06-14T03:17:12;9.10;79.10
77865;DHT22;67061;48.524;9.040;2023-06-14T03:19:39;9.10;78.60
77865;DHT22;67061;48.524;9.040;2023-06-14T03:22:06;9.20;78.70
77865;DHT22;67061;48.524;9.040;2023-06-14T03:24:35;9.00;78.70
77865;DHT22;67061;48.524;9.040;2023-06-14T03:27:03;9.00;79.90
77865;DHT22;67061;48.524;9.040;2023-06-14T03:29:30;9.10;79.30
77865;DHT22;67061;48.524;9.040;2023-06-14T03:31:58;9.00;78.60
77865;DHT22;67061;48.524;9.040;2023-06-14T03:34:25;9.00;79.60
77865;DHT22;67061;48.524;9.040;2023-06-14T03:36:52;9.10;79.50
77865;DHT22;67061;48.524;9.040;2023-06-14T03:39:19;9.10;80.60
77865;DHT22;67061;48.524;9.040;2023-06-14T03:41:47;9.20;79.60
77865;DHT22;67061;48.524;9.040;2023-06-14T03:44:16;9.20;78.80
77865;DHT22;67061;48.524;9.040;2023-06-14T03:46:43;9.20;79.60
77865;DHT22;67061;48.524;9.040;2023-06-14T03:49:10;9.10;79.20
77865;DHT22;67061;48.524;9.040;2023-06-14T03:51:37;8.90;79.90
77865;DHT22;67061;48.524;9.040;2023-06-14T03:54:05;8.80;80.60
77865;DHT22;67061;48.524;9.040;2023-06-14T03:56:32;8.60;81.00
77865;DHT22;67061;48.524;9.040;2023-06-14T03:59:00;8.50;81.60
77865;DHT22;67061;48.524;9.040;2023-06-14T04:01:27;8.50;81.70
77865;DHT22;67061;48.524;9.040;2023-06-14T04:03:56;8.50;82.40
77865;DHT22;67061;48.524;9.040;2023-06-14T04:06:23;8.50;82.20
77865;DHT22;67061;48.524;9.040;2023-06-14T04:08:58;8.60;82.60
77865;DHT22;67061;48.524;9.040;2023-06-14T04:11:29;8.60;82.30
77865;DHT22;67061;48.524;9.040;2023-06-14T04:13:57;8.60;82.40
77865;DHT22;67061;48.524;9.040;2023-06-14T04:16:26;8.60;81.10
77865;DHT22;67061;48.524;9.040;2023-06-14T04:18:54;8.70;82.10
77865;DHT22;67061;48.524;9.040;2023-06-14T04:21:21;8.80;80.90
77865;DHT22;67061;48.524;9.040;2023-06-14T04:23:49;8.90;80.80
77865;DHT22;67061;48.524;9.040;2023-06-14T04:26:18;9.00;80.30
77865;DHT22;67061;48.524;9.040;2023-06-14T04:28:46;9.00;79.70
77865;DHT22;67061;48.524;9.040;2023-06-14T04:31:15;9.00;79.80
77865;DHT22;67061;48.524;9.040;2023-06-14T04:33:43;9.00;79.00
77865;DHT22;67061;48.524;9.040;2023-06-14T04:36:12;9.20;79.50
77865;DHT22;67061;48.524;9.040;2023-06-14T04:38:39;9.20;80.10
77865;DHT22;67061;48.524;9.040;2023-06-14T04:41:11;9.20;79.90
77865;DHT22;67061;48.524;9.040;2023-06-14T04:43:38;9.20;79.80
77865;DHT22;67061;48.524;9.040;2023-06-14T04:46:06;9.20;79.40
77865;DHT22;67061;48.524;9.040;2023-06-14T04:48:36;9.30;79.60
77865;DHT22;67061;48.524;9.040;2023-06-14T04:51:08;9.30;79.00
77865;DHT22;67061;48.524;9.040;2023-06-14T04:53:36;9.40;79.70
77865;DHT22;67061;48.524;9.040;2023-06-14T04:56:03;9.50;78.90
77865;DHT22;67061;48.524;9.040;2023-06-14T04:58:31;9.60;78.10
77865;DHT22;67061;48.524;9.040;2023-06-14T05:00:58;9.70;79.30
77865;DHT22;67061;48.524;9.040;2023-06-14T05:03:26;9.80;78.10
77865;DHT22;67061;48.524;9.040;2023-06-14T05:05:54;9.80;77.90
77865;DHT22;67061;48.524;9.040;2023-06-14T05:08:23;10.00;77.20
77865;DHT22;67061;48.524;9.040;2023-06-14T05:10:50;10.10;76.40
77865;DHT22;67061;48.524;9.040;2023-06-14T05:13:17;10.10;76.20
77865;DHT22;67061;48.524;9.040;2023-06-14T05:15:44;10.20;76.60
77865;DHT22;67061;48.524;9.040;2023-06-14T05:18:12;10.30;76.90
77865;DHT22;67061;48.524;9.040;2023-06-14T05:20:40;10.40;76.50
77865;DHT22;67061;48.524;9.040;2023-06-14T05:23:08;10.50;75.90
77865;DHT22;67061;48.524;9.040;2023-06-14T05:25:42;10.60;76.50
77865;DHT22;67061;48.524;9.040;2023-06-14T05:28:10;10.70;75.70
77865;DHT22;67061;48.524;9.040;2023-06-14T05:30:38;10.90;75.80
77865;DHT22;67061;48.524;9.040;2023-06-14T05:33:06;11.10;76.00
77865;DHT22;67061;48.524;9.040;2023-06-14T05:35:33;11.30;75.70
77865;DHT22;67061;48.524;9.040;2023-06-14T05:38:00;11.50;75.80
77865;DHT22;67061;48.524;9.040;2023-06-14T05:40:27;11.70;74.70
77865;DHT22;67061;48.524;9.040;2023-06-14T05:42:55;11.70;74.00
77865;DHT22;67061;48.524;9.040;2023-06-14T05:45:22;11.80;73.20
77865;DHT22;67061;48.524;9.040;2023-06-14T05:47:49;11.80;72.50
77865;DHT22;67061;48.524;9.040;2023-06-14T05:50:16;11.70;72.40
77865;DHT22;67061;48.524;9.040;2023-06-14T05:52:43;11.70;72.10
77865;DHT22;67061;48.524;9.040;2023-06-14T05:55:10;11.70;72.20
77865;DHT22;67061;48.524;9.040;2023-06-14T05:57:38;11.90;72.30
77865;DHT22;67061;48.524;9.040;2023-06-14T06:00:08;12.00;72.10
77865;DHT22;67061;48.524;9.040;2023-06-14T06:02:40;12.10;70.90
77865;DHT22;67061;48.524;9.040;2023-06-14T06:05:09;12.20;71.30
77865;DHT22;67061;48.524;9.040;2023-06-14T06:07:36;12.30;69.50
77865;DHT22;67061;48.524;9.040;2023-06-14T06:10:04;12.50;70.30
77865;DHT22;67061;48.524;9.040;2023-06-14T06:12:31;12.50;69.30
77865;DHT22;67061;48.524;9.040;2023-06-14T06:14:59;12.60;67.90
77865;DHT22;67061;48.524;9.040;2023-06-14T06:17:28;12.90;68.20
77865;DHT22;67061;48.524;9.040;2023-06-14T06:19:55;13.00;65.80
77865;DHT22;67061;48.524;9.040;2023-06-14T06:22:23;13.10;65.60
77865;DHT22;67061;48.524;9.040;2023-06-14T06:24:50;13.10;65.60
77865;DHT22;67061;48.524;9.040;2023-06-14T06:27:17;13.20;65.50
77865;DHT22;67061;48.524;9.040;2023-06-14T06:29:46;13.50;65.20
77865;DHT22;67061;48.524;9.040;2023-06-14T06:32:14;13.60;65.00
77865;DHT22;67061;48.524;9.040;2023-06-14T06:34:43;13.70;65.60
77865;DHT22;67061;48.524;9.040;2023-06-14T06:37:10;13.90;64.50
77865;DHT22;67061;48.524;9.040;2023-06-14T06:39:37;14.10;66.40
77865;DHT22;67061;48.524;9.040;2023-06-14T06:42:05;14.10;64.90
77865;DHT22;67061;48.524;9.040;2023-06-14T06:44:32;14.20;64.30
77865;DHT22;67061;48.524;9.040;2023-06-14T06:46:59;14.40;65.20
77865;DHT22;67061;48.524;9.040;2023-06-14T06:49:27;14.70;63.70
77865;DHT22;67061;48.524;9.040;2023-06-14T06:52:04;14.90;62.20
77865;DHT22;67061;48.524;9.040;2023-06-14T06:54:31;15.00;62.10
77865;DHT22;67061;48.524;9.040;2023-06-14T06:56:59;15.00;61.10
77865;DHT22;67061;48.524;9.040;2023-06-14T06:59:27;15.00;61.50
77865;DHT22;67061;48.524;9.040;2023-06-14T07:01:54;15.00;61.20
77865;DHT22;67061;48.524;9.040;2023-06-14T07:04:21;15.20;62.00
77865;DHT22;67061;48.524;9.040;2023-06-14T07:06:48;15.20;60.10
77865;DHT22;67061;48.524;9.040;2023-06-14T07:09:17;15.20;60.20
77865;DHT22;67061;48.524;9.040;2023-06-14T07:11:46;15.40;60.30
77865;DHT22;67061;48.524;9.040;2023-06-14T07:14:14;15.40;60.20
77865;DHT22;67061;48.524;9.040;2023-06-14T07:16:41;15.50;60.10
77865;DHT22;67061;48.524;9.040;2023-06-14T07:19:08;15.60;59.00
77865;DHT22;67061;48.524;9.040;2023-06-14T07:21:36;15.60;58.30
77865;DHT22;67061;48.524;9.040;2023-06-14T07:24:04;15.60;58.50
77865;DHT22;67061;48.524;9.040;2023-06-14T07:26:34;15.70;58.10
77865;DHT22;67061;48.524;9.040;2023-06-14T07:29:01;15.80;57.30
77865;DHT22;67061;48.524;9.040;2023-06-14T07:31:28;16.00;57.10
77865;DHT22;67061;48.524;9.040;2023-06-14T07:33:56;16.10;57.10
77865;DHT22;67061;48.524;9.040;2023-06-14T07:36:23;16.20;57.30
77865;DHT22;67061;48.524;9.040;2023-06-14T07:38:50;16.40;57.30
77865;DHT22;67061;48.524;9.040;2023-06-14T07:41:17;16.50;55.50
77865;DHT22;67061;48.524;9.040;2023-06-14T07:43:45;16.60;55.50
77865;DHT22;67061;48.524;9.040;2023-06-14T07:46:12;16.80;54.70
77865;DHT22;67061;48.524;9.040;2023-06-14T07:48:39;16.90;55.40
77865;DHT22;67061;48.524;9.040;2023-06-14T07:51:06;17.00;54.80
77865;DHT22;67061;48.524;9.040;2023-06-14T07:53:33;17.00;55.50
77865;DHT22;67061;48.524;9.040;2023-06-14T07:55:59;17.20;55.20
77865;DHT22;67061;48.524;9.040;2023-06-14T07:58:28;17.30;55.20
77865;DHT22;67061;48.524;9.040;2023-06-14T08:00:56;17.60;54.30
77865;DHT22;67061;48.524;9.040;2023-06-14T08:03:23;17.80;54.70
77865;DHT22;67061;48.524;9.040;2023-06-14T08:05:50;17.90;53.60
77865;DHT22;67061;48.524;9.040;2023-06-14T08:08:17;18.00;54.50
77865;DHT22;67061;48.524;9.040;2023-06-14T08:10:44;18.10;53.20
77865;DHT22;67061;48.524;9.040;2023-06-14T08:13:11;18.20;54.00
77865;DHT22;67061;48.524;9.040;2023-06-14T08:15:38;18.30;52.70
77865;DHT22;67061;48.524;9.040;2023-06-14T08:18:07;18.40;52.40
77865;DHT22;67061;48.524;9.040;2023-06-14T08:20:34;18.60;53.10
77865;DHT22;67061;48.524;9.040;2023-06-14T08:23:02;18.70;51.10
77865;DHT22;67061;48.524;9.040;2023-06-14T08:25:29;18.80;50.70
77865;DHT22;67061;48.524;9.040;2023-06-14T08:27:56;18.90;51.90
77865;DHT22;67061;48.524;9.040;2023-06-14T08:30:23;19.20;50.70
77865;DHT22;67061;48.524;9.040;2023-06-14T08:32:50;19.30;50.30
77865;DHT22;67061;48.524;9.040;2023-06-14T08:35:19;19.50;47.40
77865;DHT22;67061;48.524;9.040;2023-06-14T08:37:45;19.70;45.50
77865;DHT22;67061;48.524;9.040;2023-06-14T08:40:18;19.80;44.00
77865;DHT22;67061;48.524;9.040;2023-06-14T08:42:48;19.90;44.00
77865;DHT22;67061;48.524;9.040;2023-06-14T08:45:17;20.00;42.60
77865;DHT22;67061;48.524;9.040;2023-06-14T08:47:44;20.10;42.30
77865;DHT22;67061;48.524;9.040;2023-06-14T08:50:11;20.10;43.00
77865;DHT22;67061;48.524;9.040;2023-06-14T08:52:45;20.10;43.10
77865;DHT22;67061;48.524;9.040;2023-06-14T08:55:16;20.20;42.50
77865;DHT22;67061;48.524;9.040;2023-06-14T08:57:46;20.20;42.50
77865;DHT22;67061;48.524;9.040;2023-06-14T09:00:15;20.30;42.10
77865;DHT22;67061;48.524;9.040;2023-06-14T09:02:43;20.30;42.70
77865;DHT22;67061;48.524;9.040;2023-06-14T09:05:10;20.30;41.70
77865;DHT22;67061;48.524;9.040;2023-06-14T09:07:39;20.50;42.20
77865;DHT22;67061;48.524;9.040;2023-06-14T09:10:14;20.60;41.50
77865;DHT22;67061;48.524;9.040;2023-06-14T09:12:41;20.50;41.90
77865;DHT22;67061;48.524;9.040;2023-06-14T09:15:08;20.50;41.90
77865;DHT22;67061;48.524;9.040;2023-06-14T09:17:36;20.60;42.30
77865;DHT22;67061;48.524;9.040;2023-06-14T09:20:04;20.70;41.60
77865;DHT22;67061;48.524;9.040;2023-06-14T09:22:35;20.60;42.50
77865;DHT22;67061;48.524;9.040;2023-06-14T09:25:01;20.80;41.80
77865;DHT22;67061;48.524;9.040;2023-06-14T09:27:30;21.00;41.40
77865;DHT22;67061;48.524;9.040;2023-06-14T09:29:57;21.00;41.40
77865;DHT22;67061;48.524;9.040;2023-06-14T09:32:25;21.10;41.20
77865;DHT22;67061;48.524;9.040;2023-06-14T09:34:52;21.10;41.90
77865;DHT22;67061;48.524;9.040;2023-06-14T09:37:29;21.20;41.30
77865;DHT22;67061;48.524;9.040;2023-06-14T09:39:56;21.20;41.50
77865;DHT22;67061;48.524;9.040;2023-06-14T09:42:23;21.30;41.20
77865;DHT22;67061;48.524;9.040;2023-06-14T09:44:54;21.30;40.60
77865;DHT22;67061;48.524;9.040;2023-06-14T09:47:22;21.30;41.60
77865;DHT22;67061;48.524;9.040;2023-06-14T09:49:50;21.50;40.30
77865;DHT22;67061;48.524;9.040;2023-06-14T09:52:21;21.60;39.60
77865;DHT22;67061;48.524;9.040;2023-06-14T09:54:48;21.50;40.10
77865;DHT22;67061;48.524;9.040;2023-06-14T09:57:17;21.40;40.20
77865;DHT22;67061;48.524;9.040;2023-06-14T09:59:48;21.40;40.30
77865;DHT22;67061;48.524;9.040;2023-06-14T10:02:26;21.50;40.20
77865;DHT22;67061;48.524;9.040;2023-06-14T10:05:03;21.60;40.70
77865;DHT22;67061;48.524;9.040;2023-06-14T10:07:35;21.60;40.30
77865;DHT22;67061;48.524;9.040;2023-06-14T10:10:02;21.70;39.60
77865;DHT22;67061;48.524;9.040;2023-06-14T10:12:31;21.70;39.40
77865;DHT22;67061;48.524;9.040;2023-06-14T10:14:58;21.70;38.50
77865;DHT22;67061;48.524;9.040;2023-06-14T10:17:34;21.70;39.00
77865;DHT22;67061;48.524;9.040;2023-06-14T10:20:19;21.70;39.80
77865;DHT22;67061;48.524;9.040;2023-06-14T10:22:50;21.90;37.90
77865;DHT22;67061;48.524;9.040;2023-06-14T10:25:35;21.80;38.00
77865;DHT22;67061;48.524;9.040;2023-06-14T10:28:12;21.80;36.80
77865;DHT22;67061;48.524;9.040;2023-06-14T10:31:01;21.90;37.50
77865;DHT22;67061;48.524;9.040;2023-06-14T10:33:31;22.00;37.70
77865;DHT22;67061;48.524;9.040;2023-06-14T10:36:07;22.00;36.80
77865;DHT22;67061;48.524;9.040;2023-06-14T10:38:36;22.00;36.40
77865;DHT22;67061;48.524;9.040;2023-06-14T10:41:04;22.00;37.20
77865;DHT22;67061;48.524;9.040;2023-06-14T10:43:31;22.20;36.80
77865;DHT22;67061;48.524;9.040;2023-06-14T10:46:17;22.30;37.00
77865;DHT22;67061;48.524;9.040;2023-06-14T10:48:57;22.30;35.90
77865;DHT22;67061;48.524;9.040;2023-06-14T10:51:24;22.30;36.80
77865;DHT22;67061;48.524;9.040;2023-06-14T10:53:52;22.50;35.90
77865;DHT22;67061;48.524;9.040;2023-06-14T10:56:29;22.70;36.80
77865;DHT22;67061;48.524;9.040;2023-06-14T10:58:57;23.00;35.50
77865;DHT22;67061;48.524;9.040;2023-06-14T11:01:37;23.00;34.90
77865;DHT22;67061;48.524;9.040;2023-06-14T11:04:09;22.90;36.20
77865;DHT22;67061;48.524;9.040;2023-06-14T11:06:45;22.70;34.80
77865;DHT22;67061;48.524;9.040;2023-06-14T11:09:39;22.50;36.20
77865;DHT22;67061;48.524;9.040;2023-06-14T11:12:12;22.40;34.70
77865;DHT22;67061;48.524;9.040;2023-06-14T11:14:39;22.10;36.50
77865;DHT22;67061;48.524;9.040;2023-06-14T11:17:06;22.20;36.70
77865;DHT22;67061;48.524;9.040;2023-06-14T11:19:35;22.50;37.20
77865;DHT22;67061;48.524;9.040;2023-06-14T11:22:02;22.60;36.60
77865;DHT22;67061;48.524;9.040;2023-06-14T11:24:29;22.80;36.20
77865;DHT22;67061;48.524;9.040;2023-06-14T11:26:56;22.70;35.60
77865;DHT22;67061;48.524;9.040;2023-06-14T11:29:23;22.90;35.30
77865;DHT22;67061;48.524;9.040;2023-06-14T11:31:51;23.10;36.30
77865;DHT22;67061;48.524;9.040;2023-06-14T11:34:18;23.50;35.40
77865;DHT22;67061;48.524;9.040;2023-06-14T11:36:49;23.50;34.60
77865;DHT22;67061;48.524;9.040;2023-06-14T11:39:16;23.40;35.70
77865;DHT22;67061;48.524;9.040;2023-06-14T11:41:44;23.60;34.80
77865;DHT22;67061;48.524;9.040;2023-06-14T11:44:12;23.60;35.00
77865;DHT22;67061;48.524;9.040;2023-06-14T11:46:38;24.00;34.30
77865;DHT22;67061;48.524;9.040;2023-06-14T11:49:07;24.00;33.90
77865;DHT22;67061;48.524;9.040;2023-06-14T11:51:35;24.00;33.70
77865;DHT22;67061;48.524;9.040;2023-06-14T11:54:06;24.30;34.10
77865;DHT22;67061;48.524;9.040;2023-06-14T11:56:33;24.10;33.00
77865;DHT22;67061;48.524;9.040;2023-06-14T11:59:02;24.00;32.20
77865;DHT22;67061;48.524;9.040;2023-06-14T12:01:31;24.20;32.90
77865;DHT22;67061;48.524;9.040;2023-06-14T12:03:59;24.40;32.60
77865;DHT22;67061;48.524;9.040;2023-06-14T12:06:26;24.70;31.80
77865;DHT22;67061;48.524;9.040;2023-06-14T12:08:55;24.40;32.40
77865;DHT22;67061;48.524;9.040;2023-06-14T12:11:31;24.40;33.70
77865;DHT22;67061;48.524;9.040;2023-06-14T12:13:58;24.40;34.00
77865;DHT22;67061;48.524;9.040;2023-06-14T12:16:30;24.50;32.60
77865;DHT22;67061;48.524;9.040;2023-06-14T12:19:01;24.40;30.50
77865;DHT22;67061;48.524;9.040;2023-06-14T12:21:34;24.20;33.00
77865;DHT22;67061;48.524;9.040;2023-06-14T12:24:03;24.40;33.90
77865;DHT22;67061;48.524;9.040;2023-06-14T12:26:34;24.40;32.60
77865;DHT22;67061;48.524;9.040;2023-06-14T12:29:05;24.40;33.40
77865;DHT22;67061;48.524;9.040;2023-06-14T12:31:32;24.50;32.60
77865;DHT22;67061;48.524;9.040;2023-06-14T12:33:59;24.40;32.30
77865;DHT22;67061;48.524;9.040;2023-06-14T12:36:27;24.50;32.50
77865;DHT22;67061;48.524;9.040;2023-06-14T12:38:54;24.20;32.00
77865;DHT22;67061;48.524;9.040;2023-06-14T12:41:21;24.00;33.20
77865;DHT22;67061;48.524;9.040;2023-06-14T12:43:50;24.20;32.70
77865;DHT22;67061;48.524;9.040;2023-06-14T12:46:17;24.00;32.60
77865;DHT22;67061;48.524;9.040;2023-06-14T12:48:44;23.90;33.20
77865;DHT22;67061;48.524;9.040;2023-06-14T12:51:11;24.20;33.20
77865;DHT22;67061;48.524;9.040;2023-06-14T12:53:38;24.40;32.90
77865;DHT22;67061;48.524;9.040;2023-06-14T12:56:05;24.70;31.80
77865;DHT22;67061;48.524;9.040;2023-06-14T12:58:32;24.40;32.10
77865;DHT22;67061;48.524;9.040;2023-06-14T13:01:00;24.00;33.20
77865;DHT22;67061;48.524;9.040;2023-06-14T13:03:27;24.00;33.20
77865;DHT22;67061;48.524;9.040;2023-06-14T13:05:54;24.20;33.20
77865;DHT22;67061;48.524;9.040;2023-06-14T13:08:21;24.40;33.30
77865;DHT22;67061;48.524;9.040;2023-06-14T13:10:48;24.40;32.10
77865;DHT22;67061;48.524;9.040;2023-06-14T13:13:15;24.00;32.90
77865;DHT22;67061;48.524;9.040;2023-06-14T13:15:42;24.00;33.10
77865;DHT22;67061;48.524;9.040;2023-06-14T13:18:10;24.10;33.40
77865;DHT22;67061;48.524;9.040;2023-06-14T13:20:38;24.40;34.20
77865;DHT22;67061;48.524;9.040;2023-06-14T13:23:05;24.50;33.20
77865;DHT22;67061;48.524;9.040;2023-06-14T13:25:33;24.60;31.90
77865;DHT22;67061;48.524;9.040;2023-06-14T13:28:00;24.50;32.60
77865;DHT22;67061;48.524;9.040;2023-06-14T13:30:26;24.50;32.70
77865;DHT22;67061;48.524;9.040;2023-06-14T13:32:53;24.80;33.20
77865;DHT22;67061;48.524;9.040;2023-06-14T13:35:23;24.90;32.60
77865;DHT22;67061;48.524;9.040;2023-06-14T13:37:50;25.00;32.30
77865;DHT22;67061;48.524;9.040;2023-06-14T13:40:17;25.00;31.80
77865;DHT22;67061;48.524;9.040;2023-06-14T13:42:45;25.00;31.20
77865;DHT22;67061;48.524;9.040;2023-06-14T13:45:13;24.80;31.20
77865;DHT22;67061;48.524;9.040;2023-06-14T13:47:40;24.50;31.50
77865;DHT22;67061;48.524;9.040;2023-06-14T13:50:07;24.40;32.80
77865;DHT22;67061;48.524;9.040;2023-06-14T13:52:36;24.50;33.10
77865;DHT22;67061;48.524;9.040;2023-06-14T13:55:04;24.80;32.90
77865;DHT22;67061;48.524;9.040;2023-06-14T13:57:31;25.10;31.20
77865;DHT22;67061;48.524;9.040;2023-06-14T13:59:58;25.00;31.90
77865;DHT22;67061;48.524;9.040;2023-06-14T14:02:26;24.90;31.50
77865;DHT22;67061;48.524;9.040;2023-06-14T14:04:54;24.80;32.40
77865;DHT22;67061;48.524;9.040;2023-06-14T14:07:21;25.00;32.60
77865;DHT22;67061;48.524;9.040;2023-06-14T14:09:49;25.00;31.30
77865;DHT22;67061;48.524;9.040;2023-06-14T14:12:16;24.80;32.80
77865;DHT22;67061;48.524;9.040;2023-06-14T14:14:43;24.90;31.90
77865;DHT22;67061;48.524;9.040;2023-06-14T14:17:11;24.80;31.80
77865;DHT22;67061;48.524;9.040;2023-06-14T14:19:38;24.80;31.40
77865;DHT22;67061;48.524;9.040;2023-06-14T14:22:05;24.70;32.00
77865;DHT22;67061;48.524;9.040;2023-06-14T14:24:32;24.40;31.60
77865;DHT22;67061;48.524;9.040;2023-06-14T14:27:01;24.40;33.00
77865;DHT22;67061;48.524;9.040;2023-06-14T14:29:28;24.40;32.60
77865;DHT22;67061;48.524;9.040;2023-06-14T14:31:55;24.40;32.10
77865;DHT22;67061;48.524;9.040;2023-06-14T14:34:22;24.40;33.50
77865;DHT22;67061;48.524;9.040;2023-06-14T14:36:49;24.50;32.60
77865;DHT22;67061;48.524;9.040;2023-06-14T14:39:22;24.70;33.30
77865;DHT22;67061;48.524;9.040;2023-06-14T14:41:50;25.00;32.00
77865;DHT22;67061;48.524;9.040;2023-06-14T14:44:18;25.00;33.00
77865;DHT22;67061;48.524;9.040;2023-06-14T14:46:45;25.00;31.80
77865;DHT22;67061;48.524;9.040;2023-06-14T14:49:12;24.90;32.70
77865;DHT22;67061;48.524;9.040;2023-06-14T14:51:39;24.80;32.50
77865;DHT22;67061;48.524;9.040;2023-06-14T14:54:06;25.00;33.00
77865;DHT22;67061;48.524;9.040;2023-06-14T14:56:33;25.00;32.40
77865;DHT22;67061;48.524;9.040;2023-06-14T14:59:00;25.00;32.10
77865;DHT22;67061;48.524;9.040;2023-06-14T15:01:29;24.70;32.30
77865;DHT22;67061;48.524;9.040;2023-06-14T15:03:56;24.70;32.50
77865;DHT22;67061;48.524;9.040;2023-06-14T15:06:23;24.70;32.20
77865;DHT22;67061;48.524;9.040;2023-06-14T15:08:50;24.60;32.50
77865;DHT22;67061;48.524;9.040;2023-06-14T15:11:17;24.70;32.50
77865;DHT22;67061;48.524;9.040;2023-06-14T15:13:44;24.80;32.80
77865;DHT22;67061;48.524;9.040;2023-06-14T15:16:11;25.10;32.70
77865;DHT22;67061;48.524;9.040;2023-06-14T15:18:39;25.20;30.50
77865;DHT22;67061;48.524;9.040;2023-06-14T15:21:06;25.00;30.50
77865;DHT22;67061;48.524;9.040;2023-06-14T15:23:33;24.70;32.00
77865;DHT22;67061;48.524;9.040;2023-06-14T15:26:00;24.50;32.50
77865;DHT22;67061;48.524;9.040;2023-06-14T15:28:27;24.60;33.20
77865;DHT22;67061;48.524;9.040;2023-06-14T15:30:54;24.60;33.10
77865;DHT22;67061;48.524;9.040;2023-06-14T15:33:22;24.70;33.10
77865;DHT22;67061;48.524;9.040;2023-06-14T15:35:50;24.90;33.00
77865;DHT22;67061;48.524;9.040;2023-06-14T15:38:17;25.00;32.30
77865;DHT22;67061;48.524;9.040;2023-06-14T15:40:44;24.70;32.00